Time;durP1;ratioP1;P1;durP2;ratioP2;P2;SDS_P1;SDS_P2;PMS_P1;PMS_P2;Temp;Humidity;BMP_temperature;BMP_pressure;BME280_temperature;BME280_humidity;BME280_pressure;Samples;Min_cycle;Max_cycle;Signal;HPM_P1;HPM_P2
2022/11/24 00:01:14;;;;;;;10.57;6.80;;;3.90;99.90;;;;;;5070497;28;20460;-69
2022/11/24 00:03:41;;;;;;;10.03;6.67;;;3.90;99.90;;;;;;5070261;28;20522;-69
2022/11/24 00:06:11;;;;;;;11.93;6.60;;;3.90;99.90;;;;;;5070573;28;20450;-69
2022/11/24 00:08:39;;;;;;;12.73;6.87;;;3.80;99.90;;;;;;5070420;28;20455;-69
2022/11/24 00:11:07;;;;;;;11.10;7.10;;;3.80;99.90;;;;;;5070841;28;20466;-69
2022/11/24 00:13:34;;;;;;;12.80;6.47;;;3.80;99.90;;;;;;5070124;28;20860;-69
2022/11/24 00:16:05;;;;;;;11.93;7.20;;;3.80;99.90;;;;;;5070411;28;20822;-69
2022/11/24 00:18:32;;;;;;;15.20;6.67;;;3.90;99.90;;;;;;5054698;28;20448;-69
2022/11/24 00:20:59;;;;;;;15.40;7.33;;;3.90;99.90;;;;;;5070856;28;20442;-69
2022/11/24 00:23:27;;;;;;;9.53;6.90;;;3.90;99.90;;;;;;5069935;28;20482;-69
2022/11/24 00:25:54;;;;;;;13.90;7.40;;;3.90;99.90;;;;;;5070238;28;20507;-69
2022/11/24 00:28:20;;;;;;;14.10;7.70;;;4.00;99.90;;;;;;5070426;28;20459;-69
2022/11/24 00:30:47;;;;;;;13.37;7.20;;;4.10;99.90;;;;;;5070495;28;20448;-69
2022/11/24 00:33:14;;;;;;;17.50;9.03;;;4.10;99.90;;;;;;5069952;28;20474;-69
2022/11/24 00:35:40;;;;;;;10.93;7.80;;;4.20;99.90;;;;;;5070321;28;20546;-69
2022/11/24 00:38:07;;;;;;;15.37;8.93;;;4.20;99.90;;;;;;5070056;28;20458;-69
2022/11/24 00:40:35;;;;;;;13.90;9.30;;;4.20;99.90;;;;;;5050727;28;20459;-69
2022/11/24 00:43:02;;;;;;;20.57;11.10;;;4.30;99.90;;;;;;5057406;28;20450;-69
2022/11/24 00:45:29;;;;;;;17.97;9.93;;;4.30;99.90;;;;;;5073160;28;20451;-69
2022/11/24 00:47:55;;;;;;;16.00;9.90;;;4.30;99.90;;;;;;5073602;28;20924;-69
2022/11/24 00:50:22;;;;;;;25.57;11.00;;;4.30;99.90;;;;;;5073510;28;20964;-69
2022/11/24 00:52:49;;;;;;;22.17;10.47;;;4.30;99.90;;;;;;5073134;28;20462;-69
2022/11/24 00:55:15;;;;;;;18.57;10.37;;;4.30;99.90;;;;;;5073471;28;20487;-69
2022/11/24 00:57:43;;;;;;;20.20;10.67;;;4.40;99.90;;;;;;5073608;28;20459;-69
2022/11/24 01:00:12;;;;;;;18.03;9.97;;;4.40;99.90;;;;;;5073666;28;20455;-69
2022/11/24 01:02:39;;;;;;;19.80;10.40;;;4.40;99.90;;;;;;5073288;28;20469;-69
2022/11/24 01:05:07;;;;;;;20.93;11.73;;;4.40;99.90;;;;;;5073128;28;20547;-69
2022/11/24 01:07:33;;;;;;;19.57;11.20;;;4.40;99.90;;;;;;5073377;28;21005;-69
2022/11/24 01:10:00;;;;;;;22.30;11.00;;;4.40;99.90;;;;;;5073303;28;20452;-69
2022/11/24 01:12:27;;;;;;;22.83;11.77;;;4.40;99.90;;;;;;5073114;28;20441;-69
2022/11/24 01:14:55;;;;;;;26.37;12.63;;;4.40;99.90;;;;;;5072600;28;20504;-69
2022/11/24 01:17:22;;;;;;;23.00;12.73;;;4.40;99.90;;;;;;5073637;28;20467;-70
2022/11/24 01:19:49;;;;;;;19.60;12.37;;;4.40;99.90;;;;;;5073507;28;20455;-69
2022/11/24 01:22:16;;;;;;;25.43;12.13;;;4.40;99.90;;;;;;5072602;28;21014;-69
2022/11/24 01:24:44;;;;;;;21.63;11.80;;;4.40;99.90;;;;;;5072847;28;20533;-69
2022/11/24 01:27:11;;;;;;;27.17;12.40;;;4.40;99.90;;;;;;5073089;28;20457;-69
2022/11/24 01:29:37;;;;;;;26.43;14.00;;;4.30;99.90;;;;;;5072587;28;20949;-69
2022/11/24 01:32:06;;;;;;;29.63;13.27;;;4.30;99.90;;;;;;5073007;28;20456;-69
2022/11/24 01:34:32;;;;;;;32.60;14.73;;;4.30;99.90;;;;;;5072550;28;20492;-69
2022/11/24 01:36:59;;;;;;;30.30;13.70;;;4.30;99.90;;;;;;5073310;28;20447;-69
2022/11/24 01:39:26;;;;;;;27.20;14.40;;;4.20;99.90;;;;;;5073051;28;20451;-69
2022/11/24 01:41:52;;;;;;;23.63;13.40;;;4.20;99.90;;;;;;5073435;28;20451;-69
2022/11/24 01:44:22;;;;;;;36.90;14.70;;;4.20;99.90;;;;;;5071803;28;20467;-69
2022/11/24 01:46:51;;;;;;;22.00;12.63;;;4.20;99.90;;;;;;5072735;28;21020;-69
2022/11/24 01:49:22;;;;;;;24.63;13.77;;;4.10;99.90;;;;;;5072658;28;20531;-69
2022/11/24 01:51:53;;;;;;;23.53;13.00;;;4.10;99.90;;;;;;5073034;28;20476;-69
2022/11/24 01:54:24;;;;;;;24.00;13.53;;;4.10;99.90;;;;;;5071401;28;20488;-69
2022/11/24 01:56:54;;;;;;;24.10;13.17;;;4.10;99.90;;;;;;5072574;28;20460;-69
2022/11/24 01:59:22;;;;;;;22.40;13.43;;;4.10;99.90;;;;;;5071659;28;20827;-69
2022/11/24 02:01:51;;;;;;;23.73;12.97;;;4.10;99.90;;;;;;5072433;28;20473;-69
2022/11/24 02:04:23;;;;;;;24.27;13.87;;;4.10;99.90;;;;;;5071898;28;20844;-69
2022/11/24 02:06:51;;;;;;;27.03;13.90;;;4.20;99.90;;;;;;5071988;28;20471;-69
2022/11/24 02:09:23;;;;;;;26.50;13.20;;;4.20;99.90;;;;;;5071827;28;20444;-69
2022/11/24 02:11:51;;;;;;;28.67;15.60;;;4.20;99.90;;;;;;5072512;28;20503;-69
2022/11/24 02:14:19;;;;;;;33.83;16.23;;;4.20;99.90;;;;;;5071296;28;20480;-69
2022/11/24 02:16:50;;;;;;;32.77;15.20;;;4.20;99.90;;;;;;5072357;28;20452;-69
2022/11/24 02:19:27;;;;;;;23.50;13.20;;;4.30;99.90;;;;;;5071915;28;20514;-69
2022/11/24 02:21:54;;;;;;;24.90;13.30;;;4.30;99.90;;;;;;5072449;28;20454;-69
2022/11/24 02:24:25;;;;;;;26.93;13.40;;;4.30;99.90;;;;;;5071286;28;20464;-69
2022/11/24 02:26:53;;;;;;;24.37;13.60;;;4.40;99.90;;;;;;5072448;28;20469;-69
2022/11/24 02:29:20;;;;;;;29.80;13.90;;;4.40;99.90;;;;;;5071810;28;20967;-69
2022/11/24 02:31:51;;;;;;;32.83;13.53;;;4.40;99.90;;;;;;5071839;28;20455;-69
2022/11/24 02:34:17;;;;;;;26.23;14.33;;;4.40;99.90;;;;;;5071436;28;20538;-69
2022/11/24 02:36:44;;;;;;;20.73;13.47;;;4.50;99.90;;;;;;5072175;28;20447;-69
2022/11/24 02:39:13;;;;;;;26.27;13.80;;;4.50;99.90;;;;;;5071854;28;20453;-69
2022/11/24 02:41:41;;;;;;;31.33;13.93;;;4.50;99.90;;;;;;5071762;28;20463;-69
2022/11/24 02:44:10;;;;;;;27.53;14.13;;;4.50;99.90;;;;;;5070900;28;20465;-69
2022/11/24 02:46:37;;;;;;;33.40;14.10;;;4.50;99.90;;;;;;5071833;28;20458;-69
2022/11/24 02:49:03;;;;;;;28.17;13.77;;;4.50;99.90;;;;;;5071812;28;20456;-69
2022/11/24 02:51:30;;;;;;;26.50;13.10;;;4.60;99.90;;;;;;5071740;28;20451;-69
2022/11/24 02:53:57;;;;;;;27.53;14.13;;;4.60;99.90;;;;;;5071377;28;21008;-69
2022/11/24 02:56:25;;;;;;;26.73;13.93;;;4.60;99.90;;;;;;5071480;28;20520;-68
2022/11/24 02:58:52;;;;;;;25.70;15.27;;;4.60;99.90;;;;;;5071344;28;20444;-69
2022/11/24 03:01:20;;;;;;;29.93;14.43;;;4.60;99.90;;;;;;5071586;28;20475;-69
2022/11/24 03:03:46;;;;;;;29.33;13.70;;;4.60;99.90;;;;;;5071296;28;20475;-69
2022/11/24 03:06:13;;;;;;;24.27;12.30;;;4.70;99.90;;;;;;5070537;28;20953;-69
2022/11/24 03:08:40;;;;;;;23.30;13.03;;;4.70;99.90;;;;;;5071147;28;20867;-69
2022/11/24 03:11:06;;;;;;;29.13;13.50;;;4.70;99.90;;;;;;5071353;28;20485;-69
2022/11/24 03:13:33;;;;;;;32.57;14.73;;;4.70;99.90;;;;;;5071057;28;20499;-69
2022/11/24 03:16:00;;;;;;;27.87;15.53;;;4.70;99.90;;;;;;5071350;28;20487;-69
2022/11/24 03:18:28;;;;;;;30.80;13.57;;;4.70;99.90;;;;;;5071090;28;20459;-69
2022/11/24 03:20:59;;;;;;;23.57;13.53;;;4.70;99.90;;;;;;5071037;28;20856;-69
2022/11/24 03:23:26;;;;;;;28.93;14.40;;;4.80;99.90;;;;;;5070387;28;20475;-69
2022/11/24 03:25:53;;;;;;;24.23;13.53;;;4.80;99.90;;;;;;5071349;28;20445;-69
2022/11/24 03:28:20;;;;;;;30.57;13.40;;;4.80;99.90;;;;;;5071127;28;20944;-69
2022/11/24 03:30:48;;;;;;;22.17;12.83;;;4.80;99.90;;;;;;5070915;28;20824;-69
2022/11/24 03:33:15;;;;;;;24.20;12.80;;;4.80;99.90;;;;;;5071014;28;20475;-69
2022/11/24 03:35:43;;;;;;;24.20;13.03;;;4.80;99.90;;;;;;5071016;28;20484;-69
2022/11/24 03:38:10;;;;;;;21.73;12.90;;;4.70;99.90;;;;;;5071075;28;20448;-69
2022/11/24 03:40:37;;;;;;;22.43;12.47;;;4.70;99.90;;;;;;5071059;28;20445;-69
2022/11/24 03:43:03;;;;;;;25.60;13.80;;;4.60;99.90;;;;;;5071093;28;20451;-69
2022/11/24 03:45:30;;;;;;;28.70;13.40;;;4.60;99.90;;;;;;5071137;28;20447;-69
2022/11/24 03:47:57;;;;;;;19.87;12.20;;;4.50;99.90;;;;;;5071303;28;20459;-69
2022/11/24 03:50:23;;;;;;;26.80;13.73;;;4.50;99.90;;;;;;5070597;28;20454;-69
2022/11/24 03:52:51;;;;;;;23.80;13.20;;;4.50;99.90;;;;;;5070650;28;20440;-69
2022/11/24 03:55:18;;;;;;;19.83;11.03;;;4.50;99.90;;;;;;5070527;28;20486;-69
2022/11/24 03:57:45;;;;;;;21.43;11.40;;;4.40;99.90;;;;;;5071107;28;20805;-69
2022/11/24 04:00:12;;;;;;;26.23;13.67;;;4.40;99.90;;;;;;5070989;28;20525;-69
2022/11/24 04:02:39;;;;;;;26.43;12.37;;;4.40;99.90;;;;;;5070726;28;20945;-69
2022/11/24 04:05:06;;;;;;;27.40;12.90;;;4.30;99.90;;;;;;5070187;28;20464;-69
2022/11/24 04:07:33;;;;;;;21.87;11.50;;;4.30;99.90;;;;;;5070638;28;20458;-69
2022/11/24 04:10:02;;;;;;;21.30;11.60;;;4.30;99.90;;;;;;5070937;28;20826;-69
2022/11/24 04:12:43;;;;;;;27.37;13.77;;;4.20;99.90;;;;;;5070493;28;20479;-69
2022/11/24 04:15:10;;;;;;;24.33;12.50;;;4.20;99.90;;;;;;5051094;28;20480;-69
2022/11/24 04:17:36;;;;;;;30.73;11.97;;;4.20;99.90;;;;;;5057278;28;20453;-69
2022/11/24 04:20:04;;;;;;;26.10;13.13;;;4.20;99.90;;;;;;5074553;28;20463;-69
2022/11/24 04:22:31;;;;;;;21.67;12.67;;;4.10;99.90;;;;;;5073491;28;20964;-69
2022/11/24 04:24:57;;;;;;;27.57;13.40;;;4.10;99.90;;;;;;5074687;28;20488;-69
2022/11/24 04:27:26;;;;;;;24.93;12.40;;;4.10;99.90;;;;;;5074544;28;20454;-69
2022/11/24 04:29:52;;;;;;;22.97;13.30;;;4.10;99.90;;;;;;5074496;28;20452;-69
2022/11/24 04:32:19;;;;;;;21.83;11.40;;;4.10;99.90;;;;;;5073837;28;20451;-68
2022/11/24 04:34:46;;;;;;;25.03;12.20;;;4.10;99.90;;;;;;5074325;28;20474;-69
2022/11/24 04:37:12;;;;;;;30.13;12.57;;;4.10;99.90;;;;;;5074345;28;20445;-68
2022/11/24 04:39:39;;;;;;;25.37;12.37;;;4.10;99.90;;;;;;5074291;28;20448;-69
2022/11/24 04:42:06;;;;;;;21.73;11.10;;;4.00;99.90;;;;;;5072878;28;20447;-69
2022/11/24 04:44:34;;;;;;;20.97;11.77;;;4.00;99.90;;;;;;5073061;28;20510;-68
2022/11/24 04:47:01;;;;;;;28.70;13.50;;;4.00;99.90;;;;;;5073631;28;20487;-69
2022/11/24 04:49:28;;;;;;;27.20;12.60;;;4.00;99.90;;;;;;5074011;28;20460;-69
2022/11/24 04:51:54;;;;;;;36.80;12.70;;;3.90;99.90;;;;;;5074334;28;20876;-68
2022/11/24 04:54:21;;;;;;;19.97;11.60;;;3.90;99.90;;;;;;5073609;28;20471;-69
2022/11/24 04:56:51;;;;;;;34.73;11.90;;;3.90;99.90;;;;;;5073672;28;20487;-69
2022/11/24 04:59:18;;;;;;;22.27;11.03;;;3.90;99.90;;;;;;5073969;28;20529;-68
2022/11/24 05:01:47;;;;;;;25.27;11.67;;;3.90;99.90;;;;;;5073679;28;20966;-69
2022/11/24 05:04:15;;;;;;;38.40;12.60;;;3.90;99.90;;;;;;5073360;28;20495;-69
2022/11/24 05:06:42;;;;;;;23.27;10.87;;;3.90;99.90;;;;;;5073267;28;20441;-69
2022/11/24 05:09:13;;;;;;;24.10;11.93;;;3.90;99.90;;;;;;5072406;28;20448;-69
2022/11/24 05:11:40;;;;;;;28.63;11.70;;;3.90;99.90;;;;;;5073809;28;20474;-69
2022/11/24 05:14:06;;;;;;;28.50;11.90;;;4.00;99.90;;;;;;5072183;28;20478;-68
2022/11/24 05:16:33;;;;;;;19.10;11.80;;;4.00;99.90;;;;;;5072787;28;20483;-69
2022/11/24 05:19:01;;;;;;;22.40;12.40;;;4.00;99.90;;;;;;5073123;28;20450;-69
2022/11/24 05:21:28;;;;;;;25.73;12.37;;;4.10;99.90;;;;;;5073340;28;20463;-68
2022/11/24 05:23:55;;;;;;;31.67;11.80;;;4.10;99.90;;;;;;5072863;28;20476;-68
2022/11/24 05:26:21;;;;;;;43.63;13.47;;;4.20;99.90;;;;;;5073078;28;20513;-70
2022/11/24 05:28:48;;;;;;;30.27;12.90;;;4.20;99.90;;;;;;5072397;28;20455;-68
2022/11/24 05:31:15;;;;;;;25.30;13.33;;;4.30;99.90;;;;;;5073442;28;20461;-68
2022/11/24 05:33:42;;;;;;;29.10;13.70;;;4.30;99.90;;;;;;5072935;28;20472;-68
2022/11/24 05:36:51;;;;;;;31.67;14.13;;;4.40;99.90;;;;;;5073247;28;20476;-68
2022/11/24 05:38:57;;;;;;;38.67;15.37;;;4.40;99.90;;;;;;5072445;28;20527;-67
2022/11/24 05:41:24;;;;;;;29.50;13.90;;;4.40;99.90;;;;;;5072965;28;20453;-67
2022/11/24 05:43:50;;;;;;;31.60;13.43;;;4.50;99.90;;;;;;5072438;28;20564;-67
2022/11/24 05:46:17;;;;;;;33.00;13.43;;;4.50;99.90;;;;;;5073011;28;20459;-68
2022/11/24 05:48:44;;;;;;;52.30;13.97;;;4.50;99.90;;;;;;5072539;28;20459;-68
2022/11/24 05:51:12;;;;;;;32.63;13.03;;;4.60;99.90;;;;;;5072739;28;20843;-68
2022/11/24 05:53:38;;;;;;;38.50;13.03;;;4.60;99.90;;;;;;5072662;28;20464;-68
2022/11/24 05:56:06;;;;;;;35.97;14.10;;;4.60;99.90;;;;;;5068612;28;20535;-71
2022/11/24 05:58:33;;;;;;;42.20;13.23;;;4.70;99.90;;;;;;5071821;28;20455;-68
2022/11/24 06:00:59;;;;;;;34.57;13.30;;;4.70;99.90;;;;;;5072374;28;20456;-68
2022/11/24 06:03:26;;;;;;;25.97;11.80;;;4.70;99.90;;;;;;5071386;28;20834;-68
2022/11/24 06:05:53;;;;;;;27.80;12.83;;;4.80;99.90;;;;;;5071673;28;20941;-68
2022/11/24 06:08:21;;;;;;;25.37;11.97;;;4.80;99.90;;;;;;5070959;28;20444;-68
2022/11/24 06:10:47;;;;;;;29.37;12.70;;;4.90;99.90;;;;;;5071229;28;20483;-68
2022/11/24 06:13:14;;;;;;;28.90;12.00;;;4.80;99.90;;;;;;5070274;28;20529;-69
2022/11/24 06:15:41;;;;;;;42.37;15.07;;;4.90;99.90;;;;;;5069942;28;20541;-69
2022/11/24 06:18:07;;;;;;;27.20;13.13;;;4.90;99.90;;;;;;5069989;28;20448;-69
2022/11/24 06:20:34;;;;;;;33.03;12.40;;;4.90;99.90;;;;;;5070098;28;20448;-69
2022/11/24 06:23:01;;;;;;;40.43;11.90;;;4.90;99.90;;;;;;5070110;28;20444;-68
2022/11/24 06:25:29;;;;;;;31.27;11.97;;;4.90;99.90;;;;;;5070758;28;20448;-69
2022/11/24 06:27:56;;;;;;;30.07;11.10;;;4.90;99.90;;;;;;5072292;28;20684;-69
2022/11/24 06:30:22;;;;;;;30.20;11.83;;;4.90;99.90;;;;;;5071757;28;20451;-68
2022/11/24 06:32:53;;;;;;;29.10;11.00;;;4.80;99.90;;;;;;5071774;28;20451;-69
2022/11/24 06:35:20;;;;;;;23.67;10.90;;;4.90;99.90;;;;;;5072059;28;20807;-68
2022/11/24 06:37:47;;;;;;;20.70;11.93;;;4.90;99.90;;;;;;5072159;28;20479;-68
2022/11/24 06:40:13;;;;;;;24.63;11.50;;;4.90;99.90;;;;;;5071570;28;20452;-69
2022/11/24 06:42:41;;;;;;;26.87;11.60;;;4.90;99.90;;;;;;5071724;28;20450;-68
2022/11/24 06:45:09;;;;;;;29.03;10.80;;;4.90;99.90;;;;;;5071436;28;20483;-68
2022/11/24 06:47:36;;;;;;;26.70;11.43;;;4.90;99.90;;;;;;5072109;28;20868;-68
2022/11/24 06:50:02;;;;;;;25.60;10.93;;;4.80;99.90;;;;;;5071728;28;20451;-69
2022/11/24 06:52:29;;;;;;;27.57;11.60;;;4.80;99.90;;;;;;5071872;28;20457;-69
2022/11/24 06:54:56;;;;;;;28.30;11.50;;;4.80;99.90;;;;;;5071549;28;20519;-69
2022/11/24 06:57:22;;;;;;;28.43;10.73;;;4.90;99.90;;;;;;5071569;28;20484;-68
2022/11/24 06:59:50;;;;;;;26.37;10.57;;;4.90;99.90;;;;;;5071563;28;20442;-68
2022/11/24 07:02:17;;;;;;;25.53;10.57;;;4.90;99.90;;;;;;5071555;28;20456;-68
2022/11/24 07:04:44;;;;;;;24.73;11.90;;;4.90;99.90;;;;;;5071656;28;20464;-68
2022/11/24 07:07:11;;;;;;;26.10;10.50;;;4.90;99.90;;;;;;5071679;28;20452;-68
2022/11/24 07:09:38;;;;;;;28.77;10.70;;;5.00;99.90;;;;;;5071653;28;20457;-68
2022/11/24 07:12:05;;;;;;;32.97;10.97;;;5.00;99.90;;;;;;5070953;28;20819;-68
2022/11/24 07:14:32;;;;;;;22.23;10.50;;;5.00;99.90;;;;;;5071408;28;21024;-68
2022/11/24 07:17:01;;;;;;;26.40;12.30;;;5.00;99.90;;;;;;5071619;28;20490;-68
2022/11/24 07:19:28;;;;;;;28.90;10.97;;;5.10;99.90;;;;;;5071532;28;20459;-68
2022/11/24 07:21:54;;;;;;;28.80;9.57;;;5.10;99.90;;;;;;5071164;28;20944;-68
2022/11/24 07:24:21;;;;;;;28.47;10.93;;;5.10;99.90;;;;;;5070986;28;20994;-68
2022/11/24 07:26:48;;;;;;;24.10;10.43;;;5.20;99.90;;;;;;5071510;28;20495;-68
2022/11/24 07:29:14;;;;;;;22.77;8.90;;;5.30;99.90;;;;;;5071519;28;20448;-68
2022/11/24 07:31:41;;;;;;;23.77;10.60;;;5.40;99.90;;;;;;5071274;28;20474;-68
2022/11/24 07:34:09;;;;;;;40.57;11.10;;;5.40;99.90;;;;;;5071174;28;20471;-68
2022/11/24 07:36:36;;;;;;;22.33;9.53;;;5.50;99.90;;;;;;5070962;28;20879;-68
2022/11/24 07:39:02;;;;;;;34.63;9.87;;;5.60;99.90;;;;;;5071459;28;20501;-68
2022/11/24 07:41:29;;;;;;;46.20;9.87;;;5.70;99.90;;;;;;5071199;28;20448;-68
2022/11/24 07:43:56;;;;;;;17.23;9.20;;;5.70;99.90;;;;;;5071027;28;20476;-68
2022/11/24 07:46:22;;;;;;;23.10;9.27;;;5.80;99.90;;;;;;5071283;28;20459;-68
2022/11/24 07:48:49;;;;;;;29.83;10.30;;;5.80;99.90;;;;;;5071239;28;20456;-69
2022/11/24 07:51:17;;;;;;;27.20;9.50;;;5.90;99.90;;;;;;5070822;28;20931;-68
2022/11/24 07:53:45;;;;;;;33.00;9.90;;;5.90;99.90;;;;;;5073930;28;20482;-68
2022/11/24 07:56:12;;;;;;;25.17;9.70;;;5.90;99.90;;;;;;5074893;28;20494;-68
2022/11/24 07:58:38;;;;;;;15.87;7.67;;;5.90;99.90;;;;;;5075205;28;20454;-68
2022/11/24 08:01:10;;;;;;;30.53;10.00;;;6.00;99.90;;;;;;5074944;28;20862;-68
2022/11/24 08:03:37;;;;;;;28.57;8.90;;;6.00;99.90;;;;;;5074509;28;20502;-68
2022/11/24 08:06:04;;;;;;;23.27;8.70;;;6.00;99.90;;;;;;5075056;28;20454;-68
2022/11/24 08:08:33;;;;;;;19.13;8.90;;;6.10;99.90;;;;;;5075115;28;20856;-68
2022/11/24 08:11:04;;;;;;;20.90;8.53;;;6.10;99.90;;;;;;5075136;28;20445;-68
2022/11/24 08:13:31;;;;;;;35.77;8.33;;;6.20;99.90;;;;;;5074514;28;20501;-69
2022/11/24 08:15:58;;;;;;;23.57;8.83;;;6.20;99.90;;;;;;5074432;28;20480;-69
2022/11/24 08:18:24;;;;;;;24.13;8.20;;;6.20;99.90;;;;;;5074764;28;20504;-68
2022/11/24 08:20:51;;;;;;;22.70;8.97;;;6.30;99.90;;;;;;5074787;28;20458;-68
2022/11/24 08:23:18;;;;;;;28.57;9.53;;;6.30;99.90;;;;;;5074159;28;20995;-68
2022/11/24 08:25:46;;;;;;;23.87;8.30;;;6.30;99.90;;;;;;5074548;28;20927;-68
2022/11/24 08:28:12;;;;;;;29.47;8.90;;;6.40;99.90;;;;;;5074164;28;20537;-68
2022/11/24 08:30:39;;;;;;;29.90;8.70;;;6.40;99.90;;;;;;5074424;28;20455;-68
2022/11/24 08:33:06;;;;;;;28.57;8.73;;;6.40;99.90;;;;;;5074128;28;20451;-69
2022/11/24 08:35:36;;;;;;;32.33;8.67;;;6.50;99.90;;;;;;5074569;28;20449;-69
2022/11/24 08:38:02;;;;;;;26.03;8.20;;;6.50;99.90;;;;;;5074415;28;20488;-68
2022/11/24 08:40:29;;;;;;;26.33;10.40;;;6.60;99.90;;;;;;5074283;28;20458;-68
2022/11/24 08:42:58;;;;;;;24.00;9.00;;;6.60;99.90;;;;;;5073625;28;20457;-68
2022/11/24 08:45:26;;;;;;;28.20;8.23;;;6.60;99.90;;;;;;5074545;28;20879;-68
2022/11/24 08:47:53;;;;;;;18.03;8.30;;;6.70;99.90;;;;;;5074245;28;20464;-68
2022/11/24 08:50:20;;;;;;;18.57;8.70;;;6.80;99.90;;;;;;5074228;28;20473;-68
2022/11/24 08:52:47;;;;;;;19.73;9.00;;;6.80;99.90;;;;;;5073822;28;20781;-69
2022/11/24 08:55:14;;;;;;;28.80;10.43;;;6.90;99.90;;;;;;5074115;28;20467;-69
2022/11/24 08:57:41;;;;;;;27.03;9.97;;;6.90;99.90;;;;;;5073596;28;20497;-68
2022/11/24 09:00:10;;;;;;;29.63;9.73;;;7.00;99.90;;;;;;5074240;28;20913;-68
2022/11/24 09:02:37;;;;;;;30.57;10.60;;;7.10;99.90;;;;;;5073676;28;20453;-68
2022/11/24 09:05:04;;;;;;;25.37;9.70;;;7.20;99.90;;;;;;5074121;28;20496;-68
2022/11/24 09:07:31;;;;;;;21.57;7.30;;;7.30;99.90;;;;;;5073602;28;20943;-69
2022/11/24 09:09:58;;;;;;;27.13;8.80;;;7.40;99.90;;;;;;5073576;28;20828;-69
2022/11/24 09:12:24;;;;;;;24.80;7.20;;;7.50;99.90;;;;;;5073542;28;20823;-69
2022/11/24 09:14:51;;;;;;;27.37;7.93;;;7.60;99.90;;;;;;5073708;28;20494;-68
2022/11/24 09:17:19;;;;;;;16.30;6.50;;;7.70;99.90;;;;;;5073382;28;20494;-69
2022/11/24 09:19:46;;;;;;;24.87;6.10;;;7.80;99.90;;;;;;5073599;28;20451;-69
2022/11/24 09:22:14;;;;;;;20.03;4.90;;;7.90;99.90;;;;;;5073319;28;20955;-69
2022/11/24 09:24:40;;;;;;;19.60;5.40;;;7.90;99.90;;;;;;5073593;28;20817;-69
2022/11/24 09:27:07;;;;;;;15.13;4.50;;;8.00;99.90;;;;;;5073756;28;20455;-69
2022/11/24 09:29:34;;;;;;;26.37;4.30;;;8.00;99.90;;;;;;5073430;28;20463;-69
2022/11/24 09:32:00;;;;;;;15.87;4.50;;;8.10;99.90;;;;;;5073399;28;20451;-69
2022/11/24 09:34:28;;;;;;;17.07;4.23;;;8.20;99.90;;;;;;5072887;28;20554;-69
2022/11/24 09:36:57;;;;;;;13.63;3.77;;;8.20;99.90;;;;;;5073499;28;20487;-69
2022/11/24 09:39:24;;;;;;;10.70;3.20;;;8.30;99.90;;;;;;5073346;28;20547;-69
2022/11/24 09:42:03;;;;;;;17.43;3.93;;;8.30;99.90;;;;;;5073081;28;20970;-68
2022/11/24 09:44:58;;;;;;;12.23;3.00;;;8.40;99.90;;;;;;5073149;28;20467;-69
2022/11/24 09:47:39;;;;;;;8.93;2.50;;;8.40;99.90;;;;;;5073722;28;20505;-69
2022/11/24 09:50:12;;;;;;;9.33;2.63;;;8.90;99.90;;;;;;5073353;28;20539;-69
2022/11/24 09:52:43;;;;;;;13.47;2.90;;;9.40;99.90;;;;;;5072948;28;20448;-69
2022/11/24 09:55:28;;;;;;;6.63;2.60;;;9.60;99.90;;;;;;5072665;28;20479;-69
2022/11/24 09:58:02;;;;;;;10.10;2.50;;;10.00;99.90;;;;;;5073024;28;20483;-69
2022/11/24 10:00:30;;;;;;;14.73;3.03;;;10.00;99.90;;;;;;5072954;28;20440;-69
2022/11/24 10:02:57;;;;;;;9.10;2.20;;;9.90;99.90;;;;;;5072670;28;20452;-69
2022/11/24 10:05:29;;;;;;;7.53;2.40;;;9.80;99.90;;;;;;5072798;28;20475;-69
2022/11/24 10:08:08;;;;;;;10.83;2.60;;;9.70;99.90;;;;;;5072673;28;20467;-70
2022/11/24 10:10:42;;;;;;;11.20;3.10;;;9.60;99.90;;;;;;5072683;28;20459;-69
2022/11/24 10:13:20;;;;;;;7.80;2.57;;;9.50;99.90;;;;;;5072661;28;20475;-68
2022/11/24 10:15:56;;;;;;;4.80;2.00;;;9.60;99.90;;;;;;5071871;28;20550;-68
2022/11/24 10:18:47;;;;;;;7.70;2.37;;;9.60;99.90;;;;;;5072448;28;21026;-69
2022/11/24 10:21:32;;;;;;;7.00;2.40;;;9.70;99.90;;;;;;5072384;28;20850;-69
2022/11/24 10:24:13;;;;;;;10.67;2.80;;;9.70;99.90;;;;;;5071939;28;20972;-68
2022/11/24 10:26:48;;;;;;;5.27;2.43;;;9.60;99.90;;;;;;5072537;28;20853;-68
2022/11/24 10:29:28;;;;;;;12.00;2.33;;;9.50;99.90;;;;;;5072408;28;20533;-68
2022/11/24 10:31:56;;;;;;;10.23;3.10;;;9.30;99.90;;;;;;5072346;28;20505;-69
2022/11/24 10:34:28;;;;;;;6.53;2.80;;;9.30;99.90;;;;;;5071914;28;20480;-68
2022/11/24 10:37:02;;;;;;;9.60;2.63;;;9.40;99.90;;;;;;5072073;28;20488;-69
2022/11/24 10:39:33;;;;;;;6.93;2.73;;;9.50;99.90;;;;;;5072189;28;20452;-69
2022/11/24 10:42:05;;;;;;;10.53;2.47;;;9.40;99.90;;;;;;5072083;28;20851;-68
2022/11/24 10:44:32;;;;;;;3.57;2.10;;;9.30;99.90;;;;;;5071705;28;20475;-68
2022/11/24 10:46:59;;;;;;;6.87;2.37;;;9.40;99.90;;;;;;5071905;28;20447;-68
2022/11/24 10:49:30;;;;;;;12.13;2.30;;;9.40;99.90;;;;;;5071713;28;20455;-69
2022/11/24 10:52:05;;;;;;;9.23;2.73;;;9.40;99.90;;;;;;5071930;28;20807;-68
2022/11/24 10:54:34;;;;;;;11.77;2.60;;;9.50;99.90;;;;;;5071559;28;20471;-68
2022/11/24 10:57:01;;;;;;;6.00;2.60;;;9.60;99.90;;;;;;5071728;28;20480;-68
2022/11/24 10:59:35;;;;;;;7.30;2.40;;;9.70;99.90;;;;;;5071676;28;20471;-68
2022/11/24 11:02:02;;;;;;;10.37;2.40;;;9.90;99.90;;;;;;5071835;28;20445;-68
2022/11/24 11:04:31;;;;;;;8.93;2.70;;;9.90;99.90;;;;;;5071493;28;20843;-68
2022/11/24 11:07:18;;;;;;;8.60;2.67;;;10.00;99.90;;;;;;5071798;28;20452;-68
2022/11/24 11:09:45;;;;;;;6.20;2.67;;;10.20;99.90;;;;;;5071786;28;20527;-68
2022/11/24 11:12:19;;;;;;;7.43;2.43;;;10.30;99.90;;;;;;5071128;28;20453;-68
2022/11/24 11:14:47;;;;;;;9.30;2.23;;;10.30;99.90;;;;;;5071759;28;20496;-69
2022/11/24 11:17:35;;;;;;;9.90;3.23;;;10.40;99.90;;;;;;5071701;28;20487;-68
2022/11/24 11:20:04;;;;;;;12.40;3.40;;;10.70;99.90;;;;;;5071440;28;20443;-68
2022/11/24 11:22:36;;;;;;;4.07;2.13;;;11.00;99.90;;;;;;5071350;28;20449;-68
2022/11/24 11:25:07;;;;;;;13.80;2.73;;;11.40;99.90;;;;;;5071521;28;20472;-68
2022/11/24 11:27:34;;;;;;;7.87;2.50;;;11.50;99.90;;;;;;5070473;28;20448;-68
2022/11/24 11:30:17;;;;;;;7.73;2.77;;;11.40;99.90;;;;;;5071507;28;20452;-68
2022/11/24 11:32:53;;;;;;;10.70;2.73;;;11.40;99.90;;;;;;5071618;28;20448;-68
2022/11/24 11:35:20;;;;;;;13.77;2.77;;;11.20;99.90;;;;;;5071502;28;20531;-68
2022/11/24 11:37:49;;;;;;;16.73;3.27;;;10.90;99.90;;;;;;5071362;28;20483;-68
2022/11/24 11:40:19;;;;;;;5.17;2.20;;;10.80;99.90;;;;;;5071470;28;20444;-68
2022/11/24 11:42:50;;;;;;;8.33;2.30;;;10.70;99.90;;;;;;5070923;28;20448;-68
2022/11/24 11:45:21;;;;;;;14.13;3.60;;;10.60;99.90;;;;;;5071269;28;20467;-69
2022/11/24 11:47:52;;;;;;;10.97;3.30;;;10.70;99.90;;;;;;5071534;28;20456;-67
2022/11/24 11:50:24;;;;;;;8.93;2.50;;;10.70;99.90;;;;;;5071353;28;20499;-67
2022/11/24 11:53:04;;;;;;;10.80;3.10;;;10.60;99.90;;;;;;5070807;28;20480;-67
2022/11/24 11:55:45;;;;;;;10.70;2.93;;;10.50;99.90;;;;;;5071207;28;20581;-67
2022/11/24 11:58:41;;;;;;;9.00;2.23;;;10.40;99.90;;;;;;5071188;28;20476;-68
2022/11/24 12:01:21;;;;;;;12.33;2.57;;;10.30;99.90;;;;;;5071288;28;20448;-68
2022/11/24 12:03:58;;;;;;;14.00;3.30;;;10.10;99.90;;;;;;5070604;28;20468;-68
2022/11/24 12:06:44;;;;;;;10.77;2.40;;;10.00;99.90;;;;;;5071238;28;20452;-67
2022/11/24 12:09:24;;;;;;;12.07;2.70;;;9.90;99.90;;;;;;5071126;28;20453;-68
2022/11/24 12:12:08;;;;;;;10.20;2.70;;;9.90;99.90;;;;;;5071031;28;20459;-68
2022/11/24 12:14:43;;;;;;;8.30;2.67;;;9.90;99.90;;;;;;5071232;28;20562;-68
2022/11/24 12:17:21;;;;;;;10.03;2.60;;;9.80;99.90;;;;;;5070726;28;20645;-68
2022/11/24 12:20:02;;;;;;;11.00;2.87;;;9.80;99.90;;;;;;5071057;28;20454;-67
2022/11/24 12:22:40;;;;;;;11.70;2.90;;;9.80;99.90;;;;;;5070665;28;20456;-68
2022/11/24 12:25:22;;;;;;;8.43;2.97;;;9.80;99.90;;;;;;5071014;28;20491;-68
2022/11/24 12:27:57;;;;;;;10.10;2.30;;;9.80;99.90;;;;;;5070779;28;20460;-68
2022/11/24 12:30:24;;;;;;;7.73;2.50;;;9.90;99.90;;;;;;5070801;28;20502;-68
2022/11/24 12:33:19;;;;;;;9.40;2.40;;;10.00;99.90;;;;;;5070380;28;20450;-68
2022/11/24 12:35:53;;;;;;;7.90;2.73;;;10.00;99.90;;;;;;5070960;28;20458;-68
2022/11/24 12:38:35;;;;;;;14.20;3.07;;;10.10;99.90;;;;;;5071031;28;20488;-68
2022/11/24 12:41:21;;;;;;;8.70;2.70;;;10.20;99.90;;;;;;5074765;28;20451;-68
2022/11/24 12:43:51;;;;;;;13.17;2.80;;;10.30;99.90;;;;;;5074081;28;20887;-68
2022/11/24 12:46:23;;;;;;;6.23;2.40;;;10.30;99.90;;;;;;5074378;28;20859;-68
2022/11/24 12:49:02;;;;;;;8.30;2.40;;;10.40;99.90;;;;;;5074184;28;20448;-68
2022/11/24 12:51:33;;;;;;;7.27;2.80;;;10.60;99.90;;;;;;5074171;28;20459;-68